Rhl Felicitas — A8SV2 — position and weather

sailwx.info

Track history (hours):
 
Tides and Currents Weather Stations Pressure Air Temp Water Temp Dewpoint Dewpoint Depression Visibility Wind Speed Wind Dir Waves Ship Positions

Rhl Felicitas

Last reported at 2015-Jul-19 21:33 UTC. Time now 2015-Jul-30 00:05 UTC.
Position N 31°05' E 122°27'.
Warning: this ship's position is 10 days out of date.

Length 294 m; draft 8.9 m.

Type: Ship (hazmat cat D). MMSI: 636091781.

Date/timePositionNaut miles runAvg speedWind from/ knotsBaromVisibWave heightAir tempDewpointWater temp
2015-Jul-19 21:33N 31°05' E 122°27'1312.5
2015-Jul-19 20:33N 31°09' E 122°13'1515.0
2015-Jul-19 19:33N 31°15' E 121°57'1413.6
2015-Jul-19 18:33N 31°20' E 121°42'2 2.0
2015-Jul-19 17:31N 31°20' E 121°40'0 0.0
2015-Jul-19 16:31N 31°20' E 121°40'0 0.0
2015-Jul-19 15:31N 31°20' E 121°40'0 0.0
2015-Jul-19 14:31N 31°20' E 121°40'0 0.0
2015-Jul-19 13:28N 31°20' E 121°40'0 0.0
2015-Jul-19 12:31N 31°20' E 121°40'0 0.0
2015-Jul-19 11:31N 31°20' E 121°40'0 0.0
2015-Jul-19 10:31N 31°20' E 121°40'0 0.0
2015-Jul-19 09:19N 31°20' E 121°40'0 0.0
2015-Jul-19 08:25N 31°20' E 121°40'0 0.0
2015-Jul-19 07:31N 31°20' E 121°40'0 0.1
2015-Jul-19 06:34N 31°20' E 121°40'5 5.1
2015-Jul-19 05:33N 31°18' E 121°46'10 9.8
2015-Jul-19 04:34N 31°15' E 121°57'40 9.8
2015-Jul-19 00:30N 31°07' E 122°42'2 2.1
2015-Jul-18 23:19N 31°08' E 122°44'13 1.0
2015-Jul-18 10:04N 30°60' E 122°56'43610.2
2015-Jul-16 15:25N 24°28' E 119°21'910.6
2015-Jul-16 14:33N 24°22' E 119°14'5610.5
2015-Jul-16 09:15N 23°43' E 118°30'24710.4
2015-Jul-15 09:28N 22°08' E 114°23'1510.9
2015-Jul-15 08:05N 22°14' E 114°08'611.9
2015-Jul-15 07:33N 22°19' E 114°05'1111.2
2015-Jul-15 06:33N 22°23' E 113°54'8 0.5
2015-Jul-14 14:21N 22°21' E 114°02'1111.8
2015-Jul-14 13:24N 22°13' E 114°10'6 6.6
2015-Jul-14 12:33N 22°09' E 114°14'8 8.2
2015-Jul-14 11:33N 22°08' E 114°23'1010.5
2015-Jul-14 10:33N 21°57' E 114°23'  
Track history (hours):
 
Tides and Currents Weather Stations Pressure Air Temp Water Temp Dewpoint Dewpoint Depression Visibility Wind Speed Wind Dir Waves Ship Positions

Rhl Felicitas

Last reported at 2015-Jul-19 21:33 UTC. Time now 2015-Jul-30 00:05 UTC.
Position N 31°05' E 122°27'.
Warning: this ship's position is 10 days out of date.

Length 294 m; draft 8.9 m.

Type: Ship (hazmat cat D). MMSI: 636091781.

Date/timePositionNaut miles runAvg speedWind from/ knotsBaromVisibWave heightAir tempDewpointWater temp
2015-Jul-19 21:33N 31°05' E 122°27'1312.5
2015-Jul-19 20:33N 31°09' E 122°13'1515.0
2015-Jul-19 19:33N 31°15' E 121°57'1413.6
2015-Jul-19 18:33N 31°20' E 121°42'2 2.0
2015-Jul-19 17:31N 31°20' E 121°40'0 0.0
2015-Jul-19 16:31N 31°20' E 121°40'0 0.0
2015-Jul-19 15:31N 31°20' E 121°40'0 0.0
2015-Jul-19 14:31N 31°20' E 121°40'0 0.0
2015-Jul-19 13:28N 31°20' E 121°40'0 0.0
2015-Jul-19 12:31N 31°20' E 121°40'0 0.0
2015-Jul-19 11:31N 31°20' E 121°40'0 0.0
2015-Jul-19 10:31N 31°20' E 121°40'0 0.0
2015-Jul-19 09:19N 31°20' E 121°40'0 0.0
2015-Jul-19 08:25N 31°20' E 121°40'0 0.0
2015-Jul-19 07:31N 31°20' E 121°40'0 0.1
2015-Jul-19 06:34N 31°20' E 121°40'5 5.1
2015-Jul-19 05:33N 31°18' E 121°46'10 9.8
2015-Jul-19 04:34N 31°15' E 121°57'40 9.8
2015-Jul-19 00:30N 31°07' E 122°42'2 2.1
2015-Jul-18 23:19N 31°08' E 122°44'13 1.0
2015-Jul-18 10:04N 30°60' E 122°56'43610.2
2015-Jul-16 15:25N 24°28' E 119°21'910.6
2015-Jul-16 14:33N 24°22' E 119°14'5610.5
2015-Jul-16 09:15N 23°43' E 118°30'24710.4
2015-Jul-15 09:28N 22°08' E 114°23'1510.9
2015-Jul-15 08:05N 22°14' E 114°08'611.9
2015-Jul-15 07:33N 22°19' E 114°05'1111.2
2015-Jul-15 06:33N 22°23' E 113°54'8 0.5
2015-Jul-14 14:21N 22°21' E 114°02'1111.8
2015-Jul-14 13:24N 22°13' E 114°10'6 6.6
2015-Jul-14 12:33N 22°09' E 114°14'8 8.2
2015-Jul-14 11:33N 22°08' E 114°23'1010.5
2015-Jul-14 10:33N 21°57' E 114°23'  

Dump ship's entire track history